• Join FlightAware (Why Join?)
  • Login
  • US Flag 
04:25AM EDT


 

Airport Tracker/Info


-or-


 

Live Flight TrackerFlight Track Log ✈ SKW5517 ✈ 20-Apr-2013 ✈ KGFK - KDEN

Flight Track Log - Related Links

Times and Time Zones

All times are in EDT time to prevent confusion due to time zone crossing. See the SKW5517 flight status page for this flight to view local times or setup timezone preferences in your user account.

Time Position Orientation Groundspeed Altitude Reporting Facility
EDT Latitude Longitude Course Direction KTS MPH feet Rate Location/Type
05:42PM 47.9347 -97.1811 227° Southwest 153 176 1,700  Level Minneapolis Center
05:43PM 47.8969 -97.1811 180° South 181 208 2,900 1,440 Climbing Minneapolis Center
05:44PM 47.8731 -97.1817 181° South 180 207 3,800 1,980 Climbing Minneapolis Center
05:45PM 47.8250 -97.2156 205° Southwest 211 243 6,500 2,820 Climbing Minneapolis Center
05:46PM 47.6371 -97.6184 224° Southwest  Level FlightAware Approximate
05:46PM 47.8036 -97.3361 255° West 242 278 10,200  Level Minneapolis Center
05:47PM 47.5606 -97.7278 224° Southwest  Level FlightAware Approximate
05:47PM 47.7800 -97.4444 252° West 261 300 13,400  Level Minneapolis Center
05:48PM 47.4864 -97.8406 227° Southwest  Level FlightAware Approximate
05:48PM 47.7103 -97.5522 226° Southwest 288 331 16,800  Level Minneapolis Center
05:49PM 47.6511 -97.6408 225° Southwest 297 342 19,100 2,220 Climbing Minneapolis Center
05:50PM 47.5883 -97.7331 225° Southwest 306 352 21,400 1,920 Climbing Minneapolis Center
05:51PM 47.5194 -97.8353 225° Southwest 313 360 23,100 1,860 Climbing Minneapolis Center
05:52PM 47.4564 -97.9275 225° Southwest 320 368 25,300 1,800 Climbing Minneapolis Center
05:53PM 47.3869 -98.0267 224° Southwest 338 389 26,800 1,320 Climbing Minneapolis Center
05:54PM 47.3169 -98.1286 225° Southwest 351 404 28,100 1,200 Climbing Minneapolis Center
05:55PM 47.2469 -98.2303 225° Southwest 354 407 29,300 1,080 Climbing Minneapolis Center
05:56PM 47.1731 -98.3356 224° Southwest 357 411 30,400 1,020 Climbing Minneapolis Center
05:57PM 47.1025 -98.4378 225° Southwest 363 418 31,400 780 Climbing Minneapolis Center
05:58PM 47.0294 -98.5428 224° Southwest 367 422 32,000 240 Climbing Minneapolis Center
05:59PM 46.9531 -98.6503 224° Southwest 375 432 32,000  Level Minneapolis Center
06:00PM 46.8444 -98.7578 214° Southwest 390 449 32,000  Level Minneapolis Center
06:01PM 46.7483 -98.8361 209° Southwest 395 455 32,000  Level Minneapolis Center
06:02PM 46.6547 -98.9164 210° Southwest 394 453 32,000  Level Minneapolis Center
06:03PM 46.5600 -98.9947 210° Southwest 393 452 32,000  Level Minneapolis Center
06:05PM 46.4669 -99.0750 211° Southwest 391 450 32,000  Level Minneapolis Center
06:06PM 46.3728 -99.1519 209° Southwest 390 449 32,000  Level Minneapolis Center
06:07PM 46.2803 -99.2294 210° Southwest 387 445 32,000  Level Minneapolis Center
06:08PM 46.1836 -99.3089 210° Southwest 385 443 32,000  Level Minneapolis Center
06:09PM 46.0908 -99.3856 210° Southwest 385 443 32,000  Level Minneapolis Center
06:10PM 45.9808 -99.4775 210° Southwest 382 440 32,000  Level Minneapolis Center
06:11PM 45.8886 -99.5536 210° Southwest 383 441 32,000  Level Minneapolis Center
06:12PM 45.7956 -99.6275 209° Southwest 383 441 32,000  Level Minneapolis Center
06:13PM 45.7025 -99.7003 209° Southwest 382 440 32,000  Level Minneapolis Center
06:14PM 45.6106 -99.7753 210° Southwest 382 440 32,000  Level Minneapolis Center
06:15PM 45.5178 -99.8492 209° Southwest 382 440 32,000  Level Minneapolis Center
06:16PM 45.4258 -99.9225 209° Southwest 382 440 32,000  Level Minneapolis Center
06:17PM 45.3528 -99.9819 210° Southwest 381 438 32,000  Level Minneapolis Center
06:18PM 45.2419 -100.0692 209° Southwest 382 440 32,000  Level Minneapolis Center
06:19PM 45.1328 -100.1564 209° Southwest 382 440 32,000  Level Minneapolis Center
06:20PM 45.0414 -100.2281 209° Southwest 383 441 32,000  Level Minneapolis Center
06:21PM 44.9492 -100.3008 209° Southwest 384 442 32,000  Level Minneapolis Center
06:22PM 44.8569 -100.3739 209° Southwest 383 441 32,000  Level Minneapolis Center
06:23PM 44.7633 -100.4469 209° Southwest 384 442 32,000  Level Minneapolis Center
06:24PM 44.6694 -100.5203 209° Southwest 386 444 32,000  Level Minneapolis Center
06:25PM 44.5750 -100.5914 208° Southwest 386 444 32,000  Level Minneapolis Center
06:26PM 44.4617 -100.6786 209° Southwest 388 447 32,000  Level Minneapolis Center
06:27PM 44.3678 -100.7500 209° Southwest 386 444 32,000  Level Minneapolis Center
06:28PM 44.2739 -100.8217 209° Southwest 384 442 32,000  Level Minneapolis Center
06:29PM 44.1792 -100.8942 209° Southwest 386 444 32,000  Level Minneapolis Center
06:30PM 44.0842 -100.9661 209° Southwest 388 447 32,000  Level Minneapolis Center
06:31PM 43.9894 -101.0378 209° Southwest 388 447 32,000  Level Minneapolis Center
06:32PM 43.8950 -101.1119 210° Southwest 389 448 32,000  Level Minneapolis Center
06:33PM 43.7994 -101.1831 208° Southwest 390 449 32,000  Level Minneapolis Center
06:34PM 43.7039 -101.2528 208° Southwest 390 449 32,000  Level Minneapolis Center
06:35PM 43.6094 -101.3258 209° Southwest 389 448 32,000  Level Minneapolis Center
06:36PM 43.5131 -101.3947 207° Southwest 389 448 32,000  Level Denver Center
06:37PM 43.4178 -101.4656 208° Southwest 390 449 32,000  Level Denver Center
06:38PM 43.3214 -101.5353 208° Southwest 392 451 32,000  Level Denver Center
06:39PM 43.2239 -101.6022 207° Southwest 393 452 32,000  Level Denver Center
06:40PM 43.1261 -101.6697 207° Southwest 395 455 32,000  Level Denver Center
06:41PM 43.0158 -101.7425 206° Southwest 398 458 32,000  Level Denver Center
06:42PM 42.9228 -101.8044 206° Southwest 394 453 32,000  Level Denver Center
06:43PM 42.8111 -101.8778 206° Southwest 396 456 32,000  Level Denver Center
06:44PM 42.7175 -101.9408 206° Southwest 395 455 32,000  Level Denver Center
06:45PM 42.6067 -102.0131 206° Southwest 395 455 32,000  Level Denver Center
06:46PM 42.5114 -102.0767 206° Southwest 396 456 32,000  Level Denver Center
06:47PM 42.4172 -102.1378 206° Southwest 393 452 32,000  Level Denver Center
06:48PM 42.3044 -102.2117 206° Southwest 401 461 32,000  Level Denver Center
06:49PM 42.2100 -102.2728 206° Southwest 395 455 32,000  Level Denver Center
06:50PM 42.0986 -102.3450 206° Southwest 396 456 32,000  Level Denver Center
06:51PM 42.0036 -102.4067 206° Southwest 395 455 32,000  Level Denver Center
06:52PM 41.9083 -102.4683 206° Southwest 395 455 32,000  Level Denver Center
06:53PM 41.7972 -102.5392 205° Southwest 396 456 32,000  Level Denver Center
06:54PM 41.7019 -102.5994 205° Southwest 394 453 32,000  Level Denver Center
06:56PM 41.5917 -102.6714 206° Southwest 394 453 32,000  Level Denver Center
06:57PM 41.4956 -102.7308 205° Southwest 396 456 32,000  Level Denver Center
06:58PM 41.4000 -102.7914 205° Southwest 396 456 32,000  Level Denver Center
06:59PM 41.2889 -102.8617 205° Southwest 394 453 32,000  Level Denver Center
07:00PM 41.1833 -102.9272 205° Southwest 394 453 32,000  Level Denver Center
07:01PM 41.0872 -103.0006 210° Southwest 395 455 32,000  Level Denver Center
07:02PM 41.0167 -103.0956 225° Southwest 380 437 32,000  Level Denver Center
07:03PM 40.9389 -103.2022 226° Southwest 380 437 32,000  Level Denver Center
07:04PM 40.8658 -103.3039 226° Southwest 378 435 32,000 -180 Level Denver Center
07:05PM 40.7928 -103.4064 227° Southwest 380 437 31,700 -1,260 Descending Denver Center
07:06PM 40.7156 -103.5111 226° Southwest 392 451 29,500 -2,040 Descending Denver Center
07:07PM 40.6378 -103.6197 227° Southwest 403 464 27,600 -2,040 Descending Denver Center
07:08PM 40.5611 -103.7258 226° Southwest 396 456 25,400 -2,100 Descending Denver Center
07:09PM 40.4875 -103.8256 226° Southwest 380 437 23,400 -1,800 Descending Denver Center
07:10PM 40.4100 -103.9322 226° Southwest 377 434 21,800 -1,380 Descending Denver Center
07:11PM 40.3469 -104.0183 226° Southwest 327 376 20,600 -1,260 Descending Denver Center
07:12PM 40.2714 -104.0981 219° Southwest 319 367 19,300 -1,380 Descending Denver Center
07:13PM 40.2025 -104.1731 220° Southwest 320 368 17,800 -1,440 Descending Denver Center
07:14PM 40.1347 -104.2469 220° Southwest 316 364 16,400 -1,440 Descending Denver Center
07:15PM 40.0628 -104.3231 219° Southwest 310 357 14,900 -1,260 Descending Denver Center
07:16PM 40.0167 -104.3833 225° Southwest 292 336 14,200 -960 Descending Denver TRACON
07:17PM 39.9500 -104.4500 217° Southwest 298 343 13,200 -1,320 Descending Denver TRACON
07:18PM 39.9000 -104.5000 218° Southwest 280 322 11,800 -1,440 Descending Denver TRACON
07:18PM 39.8692 -104.4994 179° South 271 312 11,400 -600 Descending Denver Center
07:19PM 39.7942 -104.5017 181° South 248 285 11,000 -660 Descending Denver Center
07:20PM 39.7372 -104.5031 181° South 203 234 10,100 -1,080 Descending Denver Center
07:21PM 39.6772 -104.5281 198° South 207 238 8,700 -1,200 Descending Denver Center
07:22PM 39.6761 -104.5933 269° West 204 235 7,400 -840 Descending Denver Center
07:23PM 39.7258 -104.6219 336° Northwest 201 231 7,000 -360 Descending Denver Center
07:24PM 39.7733 -104.6414 343° North 163 188 6,700 -600 Descending Denver Center
07:25PM 39.8131 -104.6417 360° North 143 165 5,800 -660 Descending Denver Center
07:26PM 39.8478 -104.6419 360° North 120 138 5,400 -420 Descending Denver Center